Mount Carmel, North Dakota
Current Conditions -  °F | °C
As of 11:15 AM on Friday 28 Nov 2014 (Local Time) from KD55 Reporting Station
Overcast Overcast  
Wind Chill: -6°   Ceiling: 400
Heat Index: 10°   Visibility: 7mi
Dew Point:   Wind: 15mph
Humidity: 85%   Direction: 110°ESE
Pressure: 29.82"   Gusts: NA
Location:  48.8344°N, 98.3538°W
Report Text: KD55 281715Z AUTO 11013KT 7SM OVC004 M12/M14 A2982 RMK AO2
Loading
Personal Weather Stations






























Interactive Weather Map New forecast layout! Learn more

10-Day Weather Forecast

Advertisements
Track Severe Weather on mobile